Time;durP1;ratioP1;P1;durP2;ratioP2;P2;SDS_P1;SDS_P2;PMS_P1;PMS_P2;Temp;Humidity;BMP_temperature;BMP_pressure;BME280_temperature;BME280_humidity;BME280_pressure;Samples;Min_cycle;Max_cycle;Signal;HPM_P1;HPM_P2
2023/01/18 00:02:11;;;;;;;5.63;2.70;;;2.70;98.00;;;;;;5050940;28;20565;-66
2023/01/18 00:04:38;;;;;;;2.57;2.17;;;2.70;98.00;;;;;;5051005;28;20512;-66
2023/01/18 00:07:05;;;;;;;3.37;2.07;;;2.70;98.00;;;;;;5050958;28;20461;-66
2023/01/18 00:09:32;;;;;;;4.13;2.77;;;2.60;98.00;;;;;;5033009;28;20463;-66
2023/01/18 00:12:01;;;;;;;4.10;2.70;;;2.60;98.00;;;;;;5050555;28;20454;-66
2023/01/18 00:14:29;;;;;;;5.07;3.27;;;2.60;98.00;;;;;;5050569;28;20466;-66
2023/01/18 00:16:56;;;;;;;4.60;2.40;;;2.60;98.00;;;;;;5051431;28;20469;-66
2023/01/18 00:19:23;;;;;;;2.73;1.90;;;2.50;98.00;;;;;;5054287;28;20454;-66
2023/01/18 00:21:53;;;;;;;5.50;2.47;;;2.60;98.00;;;;;;5054113;28;20495;-66
2023/01/18 00:24:21;;;;;;;3.47;2.30;;;2.60;98.00;;;;;;5054457;28;20454;-66
2023/01/18 00:26:49;;;;;;;4.90;2.40;;;2.60;98.00;;;;;;5054157;28;20448;-66
2023/01/18 00:29:18;;;;;;;2.17;2.00;;;2.60;98.00;;;;;;5053962;28;20462;-66
2023/01/18 00:31:45;;;;;;;4.83;3.03;;;2.70;98.00;;;;;;5053804;28;21010;-66
2023/01/18 00:34:12;;;;;;;4.23;1.87;;;2.70;98.00;;;;;;5053964;28;20541;-66
2023/01/18 00:36:39;;;;;;;3.00;1.83;;;2.60;98.00;;;;;;5053751;28;20458;-66
2023/01/18 00:39:08;;;;;;;2.73;2.50;;;2.70;98.00;;;;;;5053731;28;20468;-66
2023/01/18 00:43:37;;;;;;;3.53;2.67;;;2.60;98.00;;;;;;5053561;28;20568;-66
2023/01/18 00:44:22;;;;;;;4.63;1.90;;;2.60;98.00;;;;;;5038844;28;20454;-66
2023/01/18 00:46:49;;;;;;;3.60;2.37;;;2.60;98.00;;;;;;5035825;28;20477;-66
2023/01/18 00:49:16;;;;;;;2.90;1.90;;;2.50;98.00;;;;;;5035863;28;20459;-66
2023/01/18 00:51:43;;;;;;;3.93;2.17;;;2.50;98.00;;;;;;5053449;28;20458;-66
2023/01/18 00:54:11;;;;;;;8.30;3.00;;;2.60;98.00;;;;;;5053481;28;20461;-66
2023/01/18 00:56:38;;;;;;;5.90;2.80;;;2.60;98.00;;;;;;5053424;28;20460;-66
2023/01/18 00:59:05;;;;;;;2.57;2.10;;;2.60;98.00;;;;;;5053482;28;20479;-66
2023/01/18 01:01:33;;;;;;;4.17;2.80;;;2.60;98.00;;;;;;5053285;28;21003;-66
2023/01/18 01:06:44;;;;;;;6.47;2.73;;;2.50;98.00;;;;;;5053599;28;20524;-66
2023/01/18 01:09:12;;;;;;;4.47;2.80;;;2.60;98.00;;;;;;5053422;28;20451;-66
2023/01/18 01:12:31;;;;;;;2.60;2.40;;;2.50;98.00;;;;;;5035635;28;20844;-66
2023/01/18 01:28:11;;;;;;;2.37;1.63;;;2.60;98.00;;;;;;5033127;28;20942;-66
2023/01/18 01:30:39;;;;;;;4.37;2.67;;;2.70;98.00;;;;;;5032795;28;20459;-66
2023/01/18 01:33:07;;;;;;;7.40;2.60;;;2.60;98.00;;;;;;5033007;28;20465;-66
2023/01/18 01:35:35;;;;;;;7.87;2.60;;;2.60;98.00;;;;;;5032708;28;20451;-66
2023/01/18 01:38:02;;;;;;;2.63;1.97;;;2.80;98.00;;;;;;5031448;28;20470;-67
2023/01/18 01:40:29;;;;;;;4.60;2.17;;;2.80;98.00;;;;;;5032680;28;20995;-66
2023/01/18 01:42:57;;;;;;;5.50;2.40;;;2.70;98.00;;;;;;5032717;28;20479;-66
2023/01/18 01:45:27;;;;;;;2.93;2.17;;;2.60;98.00;;;;;;5032598;28;20460;-66
2023/01/18 01:47:57;;;;;;;4.33;2.33;;;2.60;98.00;;;;;;5032706;28;20473;-67
2023/01/18 01:50:32;;;;;;;3.20;1.87;;;2.50;98.00;;;;;;5032546;28;20895;-66
2023/01/18 01:53:00;;;;;;;4.27;2.70;;;2.50;98.00;;;;;;5032530;28;20459;-66
2023/01/18 01:55:30;;;;;;;3.20;1.93;;;2.60;98.00;;;;;;5032665;28;20508;-66
2023/01/18 01:58:02;;;;;;;3.03;2.33;;;2.60;98.00;;;;;;5032538;28;20969;-66
2023/01/18 02:00:30;;;;;;;5.10;1.97;;;2.60;98.00;;;;;;5032395;28;20472;-66
2023/01/18 02:03:00;;;;;;;4.63;2.50;;;2.60;98.00;;;;;;5032656;28;20451;-66
2023/01/18 02:05:29;;;;;;;2.63;1.97;;;2.60;98.00;;;;;;5032431;28;20499;-66
2023/01/18 02:07:59;;;;;;;5.60;1.90;;;2.60;98.00;;;;;;5032411;28;20538;-66
2023/01/18 02:10:26;;;;;;;2.60;2.30;;;2.60;98.00;;;;;;5032221;28;20971;-66
2023/01/18 02:12:54;;;;;;;6.13;2.17;;;2.50;98.00;;;;;;5032269;28;20454;-66
2023/01/18 02:15:22;;;;;;;5.33;2.10;;;2.50;98.00;;;;;;5032078;28;20455;-66
2023/01/18 02:18:05;;;;;;;3.50;2.50;;;2.50;98.00;;;;;;5031995;28;20519;-66
2023/01/18 02:21:00;;;;;;;10.63;2.60;;;2.60;98.00;;;;;;5031792;28;20465;-66
2023/01/18 02:24:30;;;;;;;2.27;1.70;;;2.60;98.00;;;;;;5032014;28;20467;-66
2023/01/18 02:27:05;;;;;;;2.50;2.03;;;2.60;98.00;;;;;;5030710;28;20852;-66
2023/01/18 02:30:13;;;;;;;4.73;3.03;;;2.50;98.00;;;;;;5031846;28;20463;-66
2023/01/18 02:32:55;;;;;;;3.50;2.50;;;2.50;98.00;;;;;;5027127;28;20971;-66
2023/01/18 02:35:31;;;;;;;4.27;2.27;;;2.50;98.00;;;;;;5031660;28;20462;-66
2023/01/18 02:38:05;;;;;;;2.17;1.90;;;2.50;98.00;;;;;;5031709;28;20534;-66
2023/01/18 02:40:38;;;;;;;3.00;2.23;;;2.60;98.00;;;;;;5031148;28;20462;-66
2023/01/18 02:48:40;;;;;;;3.73;2.47;;;2.50;98.00;;;;;;5031767;28;21005;-66
2023/01/18 02:51:07;;;;;;;3.13;2.20;;;2.60;98.00;;;;;;5031513;28;20817;-66
2023/01/18 02:53:40;;;;;;;2.37;1.67;;;2.60;98.00;;;;;;5030332;28;20460;-66
2023/01/18 02:56:11;;;;;;;2.23;1.87;;;2.50;98.00;;;;;;5031439;28;20464;-67
2023/01/18 02:58:44;;;;;;;4.40;2.90;;;2.70;98.00;;;;;;5031832;28;20467;-66
2023/01/18 03:01:14;;;;;;;3.60;2.33;;;2.60;98.00;;;;;;5031580;28;20539;-66
2023/01/18 03:03:46;;;;;;;3.00;2.07;;;2.50;98.00;;;;;;5031410;28;20456;-66
2023/01/18 03:06:14;;;;;;;6.63;3.33;;;2.50;98.00;;;;;;5031375;28;20456;-66
2023/01/18 03:08:45;;;;;;;4.37;3.00;;;2.50;98.00;;;;;;5031228;28;20966;-66
2023/01/18 03:11:16;;;;;;;8.70;2.20;;;2.40;98.00;;;;;;5031678;28;20460;-66
2023/01/18 03:13:58;;;;;;;3.00;2.37;;;2.50;98.00;;;;;;5030989;28;20471;-66
2023/01/18 03:16:31;;;;;;;7.43;2.43;;;2.50;98.00;;;;;;5031041;28;20456;-66
2023/01/18 03:19:03;;;;;;;5.07;3.10;;;2.50;98.00;;;;;;5031207;28;20459;-67
2023/01/18 03:21:41;;;;;;;3.10;2.47;;;2.40;98.00;;;;;;5030995;28;20557;-66
2023/01/18 03:24:09;;;;;;;3.67;2.40;;;2.40;98.00;;;;;;5031248;28;20459;-66
2023/01/18 03:26:40;;;;;;;3.60;2.30;;;2.40;98.00;;;;;;5030911;28;20466;-66
2023/01/18 03:34:51;;;;;;;3.50;2.10;;;2.50;98.00;;;;;;5030843;28;20652;-66
2023/01/18 03:37:22;;;;;;;3.47;2.30;;;2.70;98.00;;;;;;5031120;28;20467;-67
2023/01/18 03:39:54;;;;;;;3.20;2.73;;;2.70;98.00;;;;;;5030820;28;20879;-66
2023/01/18 03:42:24;;;;;;;5.27;2.90;;;2.80;98.00;;;;;;5029547;28;20483;-66
2023/01/18 03:44:55;;;;;;;9.40;2.07;;;2.60;98.00;;;;;;5030975;28;20459;-66
2023/01/18 03:47:22;;;;;;;5.87;3.20;;;2.60;98.00;;;;;;5029937;28;20476;-66
2023/01/18 03:49:51;;;;;;;2.57;2.07;;;2.60;98.00;;;;;;5030951;28;20462;-66
2023/01/18 03:52:23;;;;;;;4.40;2.60;;;2.70;98.00;;;;;;5032639;28;20462;-66
2023/01/18 03:55:01;;;;;;;5.03;2.73;;;2.60;98.00;;;;;;5035277;28;20944;-66
2023/01/18 03:57:36;;;;;;;6.93;2.60;;;2.40;98.00;;;;;;5035049;28;20824;-66
2023/01/18 04:00:07;;;;;;;5.07;2.27;;;2.50;98.00;;;;;;5035279;28;20830;-66
2023/01/18 04:02:34;;;;;;;4.10;2.63;;;2.60;98.00;;;;;;5035281;28;21008;-66
2023/01/18 04:05:05;;;;;;;3.40;2.20;;;2.50;98.00;;;;;;5035258;28;20823;-66
2023/01/18 04:07:33;;;;;;;3.40;2.50;;;2.60;98.00;;;;;;5035533;28;20458;-66
2023/01/18 04:10:00;;;;;;;4.07;2.00;;;2.50;98.00;;;;;;5034954;28;20504;-66
2023/01/18 04:12:33;;;;;;;4.70;2.33;;;2.40;98.00;;;;;;5034590;28;20465;-66
2023/01/18 04:15:01;;;;;;;3.87;2.20;;;2.50;98.00;;;;;;5034567;28;20517;-66
2023/01/18 04:17:28;;;;;;;3.97;2.20;;;2.50;98.00;;;;;;5034727;28;20943;-66
2023/01/18 04:19:55;;;;;;;4.93;2.27;;;2.60;98.00;;;;;;5034352;28;20882;-66
2023/01/18 04:22:24;;;;;;;2.50;1.67;;;2.60;98.00;;;;;;5034284;28;20490;-66
2023/01/18 04:24:51;;;;;;;3.50;2.67;;;2.60;98.00;;;;;;5034510;28;20482;-66
2023/01/18 04:27:18;;;;;;;3.87;2.33;;;2.60;98.00;;;;;;5034116;28;20462;-66
2023/01/18 04:29:45;;;;;;;4.33;2.37;;;2.60;98.00;;;;;;5034227;28;20538;-66
2023/01/18 04:32:11;;;;;;;3.57;2.27;;;2.60;98.00;;;;;;5033858;28;20463;-66
2023/01/18 04:34:41;;;;;;;3.87;2.10;;;2.60;98.00;;;;;;5034064;28;20458;-66
2023/01/18 04:37:08;;;;;;;5.73;2.37;;;2.60;98.00;;;;;;5033920;28;20510;-66
2023/01/18 04:39:39;;;;;;;5.23;2.77;;;2.50;98.00;;;;;;5033909;28;20837;-66
2023/01/18 04:42:06;;;;;;;3.03;2.73;;;2.30;98.00;;;;;;5033941;28;20501;-66
2023/01/18 04:44:33;;;;;;;3.93;1.80;;;2.40;98.00;;;;;;5033892;28;20819;-66
2023/01/18 04:47:00;;;;;;;1.87;1.87;;;2.50;98.00;;;;;;5033747;28;20513;-66
2023/01/18 04:49:27;;;;;;;1.30;1.30;;;2.40;98.00;;;;;;5032587;28;20467;-66
2023/01/18 04:51:54;;;;;;;4.73;2.43;;;2.50;98.00;;;;;;5033818;28;20464;-66
2023/01/18 04:54:21;;;;;;;1.43;1.43;;;2.50;98.00;;;;;;5033815;28;20456;-66
2023/01/18 04:56:50;;;;;;;6.03;3.10;;;2.60;98.00;;;;;;5033757;28;20458;-68
2023/01/18 04:59:17;;;;;;;6.83;2.97;;;2.40;98.00;;;;;;5033869;28;20569;-68
2023/01/18 05:01:44;;;;;;;2.70;2.40;;;2.40;98.00;;;;;;5033435;28;20485;-68
2023/01/18 05:04:12;;;;;;;3.57;2.23;;;2.30;98.00;;;;;;5033160;28;20451;-68
2023/01/18 05:06:39;;;;;;;3.70;2.43;;;2.30;98.00;;;;;;5032235;28;20957;-68
2023/01/18 05:09:06;;;;;;;6.70;2.77;;;2.20;98.00;;;;;;5033559;28;20459;-68
2023/01/18 05:11:33;;;;;;;2.13;1.97;;;2.10;98.00;;;;;;5033331;28;20462;-66
2023/01/18 05:14:03;;;;;;;3.97;2.90;;;2.10;98.00;;;;;;5032047;28;20477;-66
2023/01/18 05:16:30;;;;;;;4.53;1.97;;;2.10;98.00;;;;;;5033475;28;20502;-66
2023/01/18 05:18:57;;;;;;;2.90;2.10;;;2.10;98.00;;;;;;5032014;28;20458;-66
2023/01/18 05:21:24;;;;;;;3.13;2.10;;;2.20;98.00;;;;;;5033062;28;20458;-66
2023/01/18 05:23:51;;;;;;;4.13;2.13;;;2.30;98.00;;;;;;5033050;28;20455;-66
2023/01/18 05:26:20;;;;;;;4.17;2.10;;;2.30;98.00;;;;;;5033042;28;20466;-66
2023/01/18 05:28:47;;;;;;;2.23;2.13;;;2.30;98.00;;;;;;5033058;28;20477;-68
2023/01/18 05:31:19;;;;;;;7.60;3.30;;;2.40;98.00;;;;;;5032937;28;20473;-68
2023/01/18 05:33:46;;;;;;;3.63;2.20;;;2.30;98.00;;;;;;5032881;28;20465;-68
2023/01/18 05:36:13;;;;;;;3.63;2.53;;;2.30;98.00;;;;;;5032914;28;21018;-68
2023/01/18 05:38:40;;;;;;;6.00;2.27;;;2.30;98.00;;;;;;5032654;28;20470;-68
2023/01/18 05:41:08;;;;;;;2.97;2.37;;;2.30;98.00;;;;;;5032755;28;20477;-68
2023/01/18 05:43:37;;;;;;;3.30;2.67;;;2.30;98.00;;;;;;5032504;28;20486;-68
2023/01/18 05:46:04;;;;;;;3.20;1.90;;;2.20;98.00;;;;;;5032676;28;20491;-68
2023/01/18 05:48:33;;;;;;;2.17;1.80;;;2.10;98.00;;;;;;5032654;28;20459;-68
2023/01/18 05:51:00;;;;;;;3.97;2.40;;;1.90;98.00;;;;;;5032474;28;20482;-68
2023/01/18 05:53:28;;;;;;;2.23;1.80;;;1.90;98.00;;;;;;5032527;28;20505;-68
2023/01/18 05:55:57;;;;;;;2.90;1.80;;;1.90;98.00;;;;;;5031549;28;20858;-68
2023/01/18 05:58:24;;;;;;;3.63;2.77;;;1.90;98.00;;;;;;5032816;28;20454;-68
2023/01/18 06:00:51;;;;;;;3.77;2.27;;;2.00;98.00;;;;;;5032455;28;20465;-68
2023/01/18 06:03:19;;;;;;;4.73;2.20;;;1.90;98.00;;;;;;5032429;28;20489;-68
2023/01/18 06:05:50;;;;;;;3.77;2.43;;;1.90;98.00;;;;;;5032394;28;20465;-68
2023/01/18 06:08:17;;;;;;;4.83;2.47;;;1.80;98.00;;;;;;5032272;28;20462;-68
2023/01/18 06:10:54;;;;;;;4.93;2.47;;;1.80;98.00;;;;;;5032074;28;20956;-68
2023/01/18 06:13:21;;;;;;;4.10;2.80;;;1.90;98.00;;;;;;5032503;28;20466;-68
2023/01/18 06:15:49;;;;;;;5.17;3.40;;;1.90;98.00;;;;;;5031501;28;20462;-66
2023/01/18 06:18:16;;;;;;;6.17;1.87;;;2.00;98.00;;;;;;5032140;28;20458;-66
2023/01/18 06:20:43;;;;;;;2.50;2.17;;;2.10;98.00;;;;;;5031980;28;20873;-65
2023/01/18 06:23:11;;;;;;;6.07;2.90;;;2.10;98.00;;;;;;5032065;28;20848;-66
2023/01/18 06:25:38;;;;;;;2.60;2.00;;;2.00;98.00;;;;;;5031902;28;20473;-66
2023/01/18 06:28:05;;;;;;;8.67;2.70;;;2.10;98.00;;;;;;5030788;28;20454;-65
2023/01/18 06:30:33;;;;;;;5.90;2.70;;;2.00;98.00;;;;;;5031654;28;20512;-66
2023/01/18 06:33:03;;;;;;;3.60;2.50;;;1.90;98.00;;;;;;5031851;28;20500;-66
2023/01/18 06:35:30;;;;;;;6.50;2.10;;;2.00;98.00;;;;;;5031721;28;20464;-66
2023/01/18 06:37:57;;;;;;;6.60;2.60;;;2.00;98.00;;;;;;5031664;28;20513;-66
2023/01/18 06:40:26;;;;;;;4.10;2.20;;;2.10;98.00;;;;;;5031687;28;20843;-65
2023/01/18 06:42:54;;;;;;;2.57;1.93;;;1.90;98.00;;;;;;5031490;28;21012;-65
2023/01/18 06:45:21;;;;;;;2.40;1.70;;;1.90;98.00;;;;;;5031588;28;20462;-65
2023/01/18 06:47:48;;;;;;;5.43;3.13;;;2.00;98.00;;;;;;5031332;28;20457;-66
2023/01/18 06:50:16;;;;;;;2.10;1.90;;;1.90;98.00;;;;;;5031568;28;20460;-66
2023/01/18 06:52:43;;;;;;;2.97;2.37;;;2.00;98.00;;;;;;5031615;28;20568;-66
2023/01/18 06:55:11;;;;;;;2.50;1.50;;;2.00;98.00;;;;;;5030579;28;20537;-65
2023/01/18 06:57:40;;;;;;;3.53;1.73;;;2.00;98.00;;;;;;5031576;28;20455;-65
2023/01/18 07:00:08;;;;;;;1.90;1.87;;;2.10;98.00;;;;;;5031355;28;20874;-64
2023/01/18 07:02:36;;;;;;;1.83;1.60;;;2.10;98.00;;;;;;5031324;28;20504;-64
2023/01/18 07:05:04;;;;;;;2.43;2.23;;;2.10;98.00;;;;;;5031426;28;20871;-65
2023/01/18 07:07:31;;;;;;;4.43;2.53;;;2.10;98.00;;;;;;5031188;28;20723;-68
2023/01/18 07:09:58;;;;;;;2.40;1.93;;;2.00;98.00;;;;;;5031352;28;20463;-67
2023/01/18 07:12:26;;;;;;;2.53;1.73;;;2.00;98.00;;;;;;5031260;28;20466;-65
2023/01/18 07:14:55;;;;;;;3.63;2.07;;;2.00;98.00;;;;;;5031021;28;20462;-65
2023/01/18 07:17:22;;;;;;;1.93;1.63;;;2.00;98.00;;;;;;5031192;28;20995;-65
2023/01/18 07:19:48;;;;;;;4.50;2.37;;;2.00;98.00;;;;;;5031367;28;20465;-64
2023/01/18 07:22:15;;;;;;;2.10;1.90;;;1.90;98.00;;;;;;5031138;28;20461;-65
2023/01/18 07:24:43;;;;;;;8.47;1.90;;;1.90;98.00;;;;;;5031066;28;20823;-65
2023/01/18 07:27:10;;;;;;;2.40;1.77;;;1.90;98.00;;;;;;5036247;28;20485;-65
2023/01/18 07:29:37;;;;;;;2.90;2.10;;;1.80;98.00;;;;;;5043005;28;21023;-65
2023/01/18 07:32:06;;;;;;;2.70;1.77;;;2.00;98.00;;;;;;5057532;28;20960;-65
2023/01/18 07:34:34;;;;;;;4.33;2.30;;;1.80;98.00;;;;;;5057622;28;20457;-65
2023/01/18 07:37:01;;;;;;;2.80;1.63;;;1.70;98.00;;;;;;5057645;28;20982;-65
2023/01/18 07:39:28;;;;;;;2.17;1.73;;;1.60;98.00;;;;;;5057322;28;20468;-65
2023/01/18 07:41:55;;;;;;;3.00;2.17;;;1.70;98.00;;;;;;5057393;28;20519;-65
2023/01/18 07:44:22;;;;;;;2.37;1.87;;;1.70;98.00;;;;;;5057317;28;20488;-65
2023/01/18 07:46:49;;;;;;;4.80;2.37;;;1.50;98.00;;;;;;5057355;28;20448;-65
2023/01/18 07:49:18;;;;;;;1.37;1.33;;;1.40;98.00;;;;;;5057407;28;20522;-65
2023/01/18 07:51:45;;;;;;;2.47;1.83;;;1.40;98.00;;;;;;5057566;28;21003;-65
2023/01/18 07:54:12;;;;;;;3.07;2.27;;;1.50;98.00;;;;;;5057740;28;20472;-66
2023/01/18 07:56:39;;;;;;;2.93;1.87;;;1.50;98.00;;;;;;5057375;28;20973;-65
2023/01/18 07:59:06;;;;;;;3.50;1.77;;;1.60;98.00;;;;;;5057490;28;20457;-65
2023/01/18 08:01:33;;;;;;;2.37;1.97;;;1.70;98.00;;;;;;5057242;28;20461;-65
2023/01/18 08:04:00;;;;;;;4.43;2.07;;;1.70;98.00;;;;;;5039791;28;20834;-65
2023/01/18 08:06:29;;;;;;;2.30;1.73;;;1.70;98.00;;;;;;5056471;28;20449;-65
2023/01/18 08:08:56;;;;;;;1.93;1.67;;;1.50;98.00;;;;;;5057237;28;20449;-65
2023/01/18 08:11:24;;;;;;;2.97;2.07;;;1.50;98.00;;;;;;5057202;28;20464;-65
2023/01/18 08:13:51;;;;;;;2.03;1.93;;;1.70;98.00;;;;;;5057304;28;20465;-65
2023/01/18 08:16:19;;;;;;;1.87;1.60;;;1.60;98.00;;;;;;5057207;28;20873;-65
2023/01/18 08:18:49;;;;;;;3.47;2.40;;;1.70;98.00;;;;;;5057133;28;20457;-65
2023/01/18 08:21:18;;;;;;;1.83;1.70;;;1.80;98.00;;;;;;5057161;28;20453;-65
2023/01/18 08:23:46;;;;;;;2.40;1.50;;;1.90;98.00;;;;;;5056879;28;20574;-65
2023/01/18 08:26:14;;;;;;;3.00;2.20;;;1.80;98.00;;;;;;5057144;28;20457;-65
2023/01/18 08:28:43;;;;;;;3.30;1.57;;;1.80;98.00;;;;;;5057037;28;20842;-65
2023/01/18 08:31:13;;;;;;;3.80;2.30;;;1.80;98.00;;;;;;5057096;28;20461;-65
2023/01/18 08:33:44;;;;;;;2.07;1.70;;;2.00;98.00;;;;;;5057308;28;20721;-63
2023/01/18 08:36:15;;;;;;;3.40;2.37;;;2.00;98.00;;;;;;5050307;28;20465;-65
2023/01/18 08:38:42;;;;;;;2.13;1.93;;;1.90;98.00;;;;;;5036091;28;20505;-65
2023/01/18 08:41:11;;;;;;;3.30;2.00;;;1.80;98.00;;;;;;5053558;28;20465;-63
2023/01/18 08:43:38;;;;;;;6.77;2.90;;;1.80;98.00;;;;;;5053544;28;20485;-63
2023/01/18 08:46:05;;;;;;;4.23;2.10;;;1.70;98.00;;;;;;5053623;28;21138;-62
2023/01/18 08:48:32;;;;;;;3.23;2.43;;;1.80;98.00;;;;;;5053408;28;20454;-63
2023/01/18 08:51:03;;;;;;;2.83;1.50;;;1.70;98.00;;;;;;5053935;28;20461;-64
2023/01/18 08:53:31;;;;;;;2.67;2.47;;;1.80;98.00;;;;;;5053896;28;20457;-62
2023/01/18 08:55:58;;;;;;;2.60;2.40;;;1.70;98.00;;;;;;5053428;28;20515;-63
2023/01/18 08:58:30;;;;;;;4.10;3.13;;;1.70;98.00;;;;;;5054313;28;20460;-62
2023/01/18 09:00:58;;;;;;;3.90;2.70;;;1.70;98.00;;;;;;5053770;28;20548;-61
2023/01/18 09:03:25;;;;;;;1.93;1.90;;;1.60;98.00;;;;;;5054360;28;20845;-61
2023/01/18 09:05:52;;;;;;;5.80;1.97;;;1.60;98.00;;;;;;5053474;28;20460;-62
2023/01/18 09:08:20;;;;;;;4.73;2.90;;;1.60;98.00;;;;;;5053639;28;20472;-63
2023/01/18 09:10:47;;;;;;;2.40;2.23;;;1.50;98.00;;;;;;5052898;28;20566;-64
2023/01/18 09:13:15;;;;;;;4.90;2.83;;;1.50;98.00;;;;;;5035384;28;20465;-59
2023/01/18 09:15:45;;;;;;;5.47;2.60;;;1.50;98.00;;;;;;5052603;28;20472;-62
2023/01/18 09:18:12;;;;;;;3.23;2.40;;;1.50;98.00;;;;;;5052962;28;20458;-62
2023/01/18 09:20:42;;;;;;;4.00;2.97;;;1.50;98.00;;;;;;5052774;28;20461;-63
2023/01/18 09:23:10;;;;;;;7.43;2.90;;;1.60;98.00;;;;;;5049240;28;20481;-63
2023/01/18 09:25:40;;;;;;;4.50;3.00;;;1.50;98.00;;;;;;5032495;28;20459;-64
2023/01/18 09:28:08;;;;;;;3.30;2.30;;;1.60;98.00;;;;;;5031498;28;20545;-63
2023/01/18 09:30:35;;;;;;;3.00;1.63;;;1.70;98.00;;;;;;5031177;28;20984;-67
2023/01/18 09:33:04;;;;;;;5.53;2.03;;;1.70;98.00;;;;;;5032648;28;20490;-65
2023/01/18 09:35:31;;;;;;;3.83;2.83;;;1.70;98.00;;;;;;5032623;28;20465;-68
2023/01/18 09:37:58;;;;;;;7.57;2.87;;;1.60;98.00;;;;;;5032608;28;20459;-67
2023/01/18 09:40:42;;;;;;;2.00;1.90;;;1.60;98.00;;;;;;5032663;28;20462;-67
2023/01/18 09:43:17;;;;;;;2.07;1.50;;;1.60;98.00;;;;;;5032784;28;20482;-64
2023/01/18 09:45:47;;;;;;;6.70;3.83;;;2.50;98.00;;;;;;5032742;28;20458;-65
2023/01/18 09:48:31;;;;;;;2.10;1.70;;;3.70;98.00;;;;;;5032825;28;20462;-62
2023/01/18 09:51:02;;;;;;;6.20;2.80;;;4.60;98.00;;;;;;5031555;28;20472;-60
2023/01/18 09:53:49;;;;;;;7.43;3.50;;;5.10;98.00;;;;;;5032796;28;20540;-60
2023/01/18 09:56:21;;;;;;;4.03;2.10;;;4.80;98.00;;;;;;5032224;28;21011;-63
2023/01/18 09:58:58;;;;;;;5.73;2.20;;;4.30;98.00;;;;;;5032701;28;20912;-61
2023/01/18 10:01:28;;;;;;;2.83;2.17;;;4.20;98.00;;;;;;5032246;28;20472;-63
2023/01/18 10:04:00;;;;;;;3.00;1.77;;;3.40;98.00;;;;;;5032211;28;20891;-62
2023/01/18 10:06:31;;;;;;;3.20;2.03;;;2.80;98.00;;;;;;5032250;28;20542;-62
2023/01/18 10:09:03;;;;;;;5.07;2.80;;;2.50;98.00;;;;;;5032298;28;20455;-63
2023/01/18 10:11:36;;;;;;;1.60;1.50;;;2.40;98.00;;;;;;5031920;28;20517;-63
2023/01/18 10:14:08;;;;;;;3.40;2.93;;;2.30;98.00;;;;;;5032166;28;20945;-63
2023/01/18 10:16:37;;;;;;;3.27;2.40;;;2.20;98.00;;;;;;5031925;28;20458;-62
2023/01/18 10:19:15;;;;;;;3.57;2.60;;;2.20;98.00;;;;;;5032187;28;20545;-62
2023/01/18 10:21:52;;;;;;;2.90;1.80;;;2.10;98.00;;;;;;5049605;28;20457;-62
2023/01/18 10:24:30;;;;;;;4.67;2.43;;;2.00;98.00;;;;;;5051606;28;20485;-62
2023/01/18 10:27:09;;;;;;;3.57;2.63;;;1.90;98.00;;;;;;5051757;28;20489;-62
2023/01/18 10:29:54;;;;;;;2.30;2.10;;;2.00;98.00;;;;;;5051704;28;20874;-60
2023/01/18 10:32:23;;;;;;;4.00;2.47;;;1.90;98.00;;;;;;5051668;28;20535;-60
2023/01/18 10:34:52;;;;;;;2.67;2.07;;;1.80;98.00;;;;;;5051508;28;20465;-61
2023/01/18 10:37:30;;;;;;;4.27;2.60;;;1.90;98.00;;;;;;5051469;28;20462;-60
2023/01/18 10:40:00;;;;;;;3.77;1.90;;;1.80;98.00;;;;;;5051412;28;20469;-60
2023/01/18 10:42:35;;;;;;;4.30;1.93;;;2.00;98.00;;;;;;5051270;28;20458;-60
2023/01/18 10:45:03;;;;;;;2.87;2.17;;;1.90;98.00;;;;;;5051357;28;21035;-60
2023/01/18 10:47:30;;;;;;;4.80;2.00;;;1.90;98.00;;;;;;5051332;28;20456;-60
2023/01/18 10:49:59;;;;;;;2.57;2.37;;;1.80;98.00;;;;;;5051416;28;20457;-60
2023/01/18 10:52:29;;;;;;;1.70;1.60;;;1.70;98.00;;;;;;5051240;28;20810;-60
2023/01/18 10:55:00;;;;;;;5.77;2.00;;;1.80;98.00;;;;;;5037722;28;20454;-60
2023/01/18 10:57:30;;;;;;;2.20;1.93;;;1.80;98.00;;;;;;5031463;28;20972;-59
2023/01/18 10:59:59;;;;;;;2.10;1.77;;;1.80;98.00;;;;;;5031185;28;20466;-59
2023/01/18 11:02:30;;;;;;;3.97;2.10;;;1.60;98.00;;;;;;5030941;28;20560;-59
2023/01/18 11:05:16;;;;;;;3.43;2.80;;;1.60;98.00;;;;;;5029759;28;20486;-58
2023/01/18 11:07:43;;;;;;;3.00;2.50;;;1.80;98.00;;;;;;5030912;28;20470;-58
2023/01/18 11:10:24;;;;;;;4.80;2.27;;;1.90;98.00;;;;;;5031142;28;20850;-58
2023/01/18 11:12:53;;;;;;;3.10;1.90;;;1.90;98.00;;;;;;5030989;28;20461;-59
2023/01/18 11:15:28;;;;;;;2.07;1.77;;;1.90;98.00;;;;;;5029932;28;20463;-59
2023/01/18 11:18:10;;;;;;;2.00;1.80;;;2.00;98.00;;;;;;5031034;28;20943;-59
2023/01/18 11:20:54;;;;;;;2.03;1.67;;;2.00;98.00;;;;;;5030951;28;20462;-59
2023/01/18 11:23:24;;;;;;;3.50;2.37;;;2.00;98.00;;;;;;5030645;28;20473;-59
2023/01/18 11:25:57;;;;;;;4.07;2.00;;;2.00;98.00;;;;;;5030894;28;20513;-59
2023/01/18 11:28:28;;;;;;;7.53;2.57;;;2.00;98.00;;;;;;5031019;28;20541;-59
2023/01/18 11:30:58;;;;;;;3.53;2.30;;;2.00;98.00;;;;;;5030841;28;20469;-59
2023/01/18 11:33:28;;;;;;;3.57;2.30;;;2.10;98.00;;;;;;5030812;28;20944;-55
2023/01/18 11:35:59;;;;;;;2.70;1.90;;;2.00;98.00;;;;;;5030988;28;20459;-58
2023/01/18 11:38:31;;;;;;;2.80;1.80;;;1.90;98.00;;;;;;5031390;28;20536;-58
2023/01/18 11:41:17;;;;;;;4.50;2.67;;;1.90;98.00;;;;;;5031579;28;20542;-57
2023/01/18 11:44:02;;;;;;;4.03;2.00;;;1.90;98.00;;;;;;5029127;28;20493;-58
2023/01/18 11:46:37;;;;;;;4.87;3.03;;;1.90;98.00;;;;;;5031419;28;20989;-58
2023/01/18 11:49:24;;;;;;;3.10;2.10;;;2.00;98.00;;;;;;5031273;28;20458;-58
2023/01/18 11:52:00;;;;;;;2.33;2.10;;;1.90;98.00;;;;;;5030644;28;20461;-58
2023/01/18 11:54:31;;;;;;;3.53;2.83;;;2.00;98.00;;;;;;5030804;28;20480;-58
2023/01/18 11:57:01;;;;;;;3.83;2.10;;;1.80;98.00;;;;;;5030965;28;20457;-58
2023/01/18 11:59:30;;;;;;;3.67;2.20;;;1.90;98.00;;;;;;5030763;28;20824;-58
2023/01/18 12:02:32;;;;;;;4.30;1.77;;;1.80;98.00;;;;;;5030726;28;20846;-58
2023/01/18 12:05:27;;;;;;;1.70;1.60;;;1.90;98.00;;;;;;5030415;28;20486;-57
2023/01/18 12:08:06;;;;;;;3.53;2.03;;;1.90;98.00;;;;;;5030383;28;20512;-58
2023/01/18 12:10:43;;;;;;;4.13;1.80;;;1.80;98.00;;;;;;5030537;28;20868;-58
2023/01/18 12:13:33;;;;;;;1.73;1.63;;;1.80;98.00;;;;;;5031747;28;20533;-58
2023/01/18 12:16:12;;;;;;;2.40;1.60;;;1.90;98.00;;;;;;5034317;28;20469;-58
2023/01/18 12:19:13;;;;;;;5.00;2.87;;;1.90;98.00;;;;;;5034316;28;20454;-58
2023/01/18 12:22:01;;;;;;;2.33;1.90;;;1.90;98.00;;;;;;5034426;28;20458;-58
2023/01/18 12:24:48;;;;;;;20.73;3.23;;;2.10;98.00;;;;;;5032446;28;20567;-58
2023/01/18 12:27:26;;;;;;;4.60;1.87;;;2.10;98.00;;;;;;5033857;28;20892;-60
2023/01/18 12:30:20;;;;;;;3.37;2.10;;;2.10;98.00;;;;;;5033761;28;20504;-59
2023/01/18 12:33:09;;;;;;;4.73;2.70;;;1.90;98.00;;;;;;5030598;28;20965;-59
2023/01/18 12:36:00;;;;;;;1.87;1.30;;;2.00;98.00;;;;;;5028391;28;20450;-59
2023/01/18 12:38:29;;;;;;;2.27;1.97;;;2.00;98.00;;;;;;5033738;28;20492;-58
2023/01/18 12:41:32;;;;;;;2.47;1.90;;;2.10;98.00;;;;;;5033636;28;20454;-59
2023/01/18 12:44:18;;;;;;;2.47;1.73;;;2.10;98.00;;;;;;5033370;28;20459;-59
2023/01/18 12:46:54;;;;;;;2.23;1.47;;;2.10;98.00;;;;;;5048261;28;20813;-59
2023/01/18 12:49:22;;;;;;;1.87;1.83;;;2.10;98.00;;;;;;5053339;28;20530;-59
2023/01/18 12:51:54;;;;;;;3.60;2.27;;;2.10;98.00;;;;;;5053150;28;20791;-58
2023/01/18 12:54:28;;;;;;;2.30;1.77;;;1.90;98.00;;;;;;5052999;28;20465;-59
2023/01/18 12:56:58;;;;;;;1.67;1.67;;;1.90;98.00;;;;;;5052905;28;20480;-59
2023/01/18 12:59:30;;;;;;;3.77;1.97;;;1.90;98.00;;;;;;5053417;28;20469;-59
2023/01/18 13:02:02;;;;;;;4.20;1.60;;;1.80;98.00;;;;;;5053431;28;20663;-59
2023/01/18 13:04:37;;;;;;;2.97;2.30;;;1.90;98.00;;;;;;5053264;28;20478;-59
2023/01/18 13:07:10;;;;;;;3.83;2.50;;;2.00;98.00;;;;;;5053295;28;20461;-60
2023/01/18 13:09:42;;;;;;;3.83;2.10;;;2.00;98.00;;;;;;5053096;28;20999;-59
2023/01/18 13:12:12;;;;;;;3.27;2.10;;;2.00;98.00;;;;;;5053126;28;20458;-59
2023/01/18 13:14:44;;;;;;;3.57;1.67;;;2.00;98.00;;;;;;5053313;28;20457;-59
2023/01/18 13:17:17;;;;;;;3.40;1.93;;;2.00;98.00;;;;;;5053072;28;20975;-59
2023/01/18 13:19:53;;;;;;;1.77;1.50;;;2.00;98.00;;;;;;5053063;28;20450;-59
2023/01/18 13:22:27;;;;;;;4.60;2.43;;;2.10;98.00;;;;;;5036585;28;20454;-59
2023/01/18 13:25:21;;;;;;;1.87;1.67;;;2.10;98.00;;;;;;5052663;28;20491;-58
2023/01/18 13:28:01;;;;;;;1.60;1.53;;;2.10;98.00;;;;;;5053746;28;20465;-58
2023/01/18 13:30:32;;;;;;;2.23;1.97;;;2.10;98.00;;;;;;5049876;28;20467;-59
2023/01/18 13:32:59;;;;;;;5.00;2.57;;;2.10;98.00;;;;;;5053737;28;20963;-59
2023/01/18 13:35:32;;;;;;;1.70;1.60;;;2.20;98.00;;;;;;5052944;28;20515;-59
2023/01/18 13:38:01;;;;;;;2.60;1.77;;;2.10;98.00;;;;;;5052878;28;20889;-58
2023/01/18 13:40:37;;;;;;;4.63;2.87;;;2.00;98.00;;;;;;5052853;28;20823;-59
2023/01/18 13:43:28;;;;;;;2.93;2.00;;;2.00;98.00;;;;;;5036087;28;20548;-59
2023/01/18 13:46:01;;;;;;;2.90;2.13;;;2.10;98.00;;;;;;5052642;28;20485;-59
2023/01/18 13:48:51;;;;;;;3.20;2.30;;;2.00;98.00;;;;;;5052696;28;20556;-59